Flight Track Log - Related Links

Times and Time Zones

All times are in EDT time to prevent confusion due to time zone crossing. See the XOJ760 flight status page for this flight to view local times or setup timezone preferences in your user account.

Time Position Orientation Groundspeed Altitude Reporting Facility
EDT Latitude Longitude Course Direction KTS MPH feet Rate Location/Type
Fri 05:15:00 PM 38.1960 -121.6994 109° East  Level Estimated
Fri 05:16:00 PM 38.1561 -121.5609 110° East  Level Estimated
Fri 05:16:34 PM 38.4950 -122.8261 110° East 140 161 1,400  Level Oakland Center
Fri 05:17:00 PM 38.1161 -121.4226 110° East  Level Estimated
Fri 05:17:36 PM 38.4514 -122.8167 170° South 213 245 4,500  Level Oakland Center
Fri 05:18:00 PM 38.0759 -121.2844 110° East  Level Estimated
Fri 05:18:37 PM 38.4703 -122.7439 72° East 225 259 7,000  Level Oakland Center
Fri 05:19:00 PM 38.0355 -121.1463 110° East  Level Estimated
Fri 05:19:39 PM 38.4942 -122.6475 72° East 273 314 7,600  Level Oakland Center
Fri 05:20:00 PM 37.9950 -121.0085 110° East  Level Estimated
Fri 05:20:41 PM 38.4808 -122.5433 99° East 299 344 8,100  Level Oakland Center
Fri 05:21:00 PM 37.9544 -120.8707 110° East  Level Estimated
Fri 05:21:42 PM 38.4628 -122.4375 102° East 302 348 9,400  Level Oakland Center
Fri 05:22:44 PM 38.4397 -122.3206 104° East 327 376 11,600 2,468 Climbing Oakland Center
Fri 05:23:46 PM 38.4158 -122.1872 103° East 367 422 14,500 2,829 Climbing Oakland Center
Fri 05:24:47 PM 38.3869 -122.0233 103° East 389 448 17,400 1,415 Climbing Oakland Center
Fri 05:25:49 PM 38.3597 -121.8717 103° East 432 497 17,400  Level Oakland Center
Fri 05:26:51 PM 38.3303 -121.7128 103° East 456 525 17,400  Level Oakland Center
Fri 05:27:53 PM 38.3069 -121.5825 103° East 375 432 17,400 49 Level Oakland Center
Fri 05:28:54 PM 38.2858 -121.4658 103° East 356 410 17,500 683 Climbing Oakland Center
Fri 05:29:56 PM 38.2628 -121.3419 103° East 363 418 18,800 1,839 Climbing Oakland Center
Fri 05:30:58 PM 38.2311 -121.1725 103° East 417 480 21,300 2,855 Climbing Oakland Center
Fri 05:32:00 PM 38.2053 -121.0331 103° East 410 472 24,700 2,927 Climbing Oakland Center
Fri 05:33:01 PM 38.1786 -120.8939 104° East 409 471 27,300 2,098 Climbing Oakland Center
Fri 05:34:03 PM 38.1497 -120.7472 104° East 428 493 29,000 823 Climbing Oakland Center
Fri 05:35:05 PM 38.1225 -120.6019 103° East 425 489 29,000  Level Oakland Center
Fri 05:36:06 PM 38.0950 -120.4619 104° East 413 475 29,000  Level Oakland Center
Fri 05:37:08 PM 38.0619 -120.2942 104° East 411 473 29,000 774 Level Oakland Center
Fri 05:38:10 PM 38.0347 -120.1514 104° East 416 479 30,600 1,902 Climbing Oakland Center
Fri 05:39:11 PM 38.0086 -120.0078 103° East 420 483 32,900 1,171 Climbing Oakland Center
Fri 05:40:13 PM 37.9775 -119.8569 105° East 439 505 33,000 48 Climbing Oakland Center
Fri 05:41:15 PM 37.9494 -119.7119 104° East 427 491 33,000  Level Oakland Center
Fri 05:42:16 PM 37.9192 -119.5644 105° East 433 498 33,000  Level Oakland Center
Fri 05:43:18 PM 37.8869 -119.4128 105° East 446 513 33,000  Level Oakland Center
Fri 05:44:19 PM 37.8503 -119.2300 104° East 445 512 33,000  Level Oakland Center
Fri 05:45:21 PM 37.8186 -119.0794 105° East 446 513 33,000 -97 Level Oakland Center
Fri 05:46:23 PM 37.7878 -118.9319 105° East 437 503 32,800 -537 Descending Oakland Center
Fri 05:47:24 PM 37.7594 -118.7939 105° East 433 498 31,900 -878 Descending Oakland Center
Fri 05:48:26 PM 37.7303 -118.6536 105° East 420 483 31,000 -435 Descending Oakland Center
Fri 05:49:28 PM 37.6967 -118.4953 105° East 394 453 31,000  Level Oakland Center
Fri 05:50:29 PM 37.6692 -118.3697 105° East 378 435 31,000  Level Oakland Center
Fri 05:51:31 PM 37.6425 -118.2436 105° East 374 430 31,000  Level Oakland Center
Fri 05:52:32 PM 37.6161 -118.1200 105° East 368 423 31,000  Level Oakland Center
Fri 05:53:34 PM 37.5897 -117.9958 105° East 368 423 31,000  Level Oakland Center
Fri 05:54:36 PM 37.5622 -117.8722 106° East 368 423 31,000  Level Oakland Center
Fri 05:55:37 PM 37.5342 -117.7453 106° East 375 432 31,000  Level Oakland Center
Fri 05:56:39 PM 37.5061 -117.6183 106° East 377 434 31,000  Level Oakland Center
Fri 05:57:40 PM 37.4711 -117.4625 106° East 385 443 31,000  Level Oakland Center
Fri 05:58:33 PM 37.4472 -117.3578 106° East 387 445 31,000  Level Los Angeles Center
Fri 05:59:35 PM 37.3889 -117.2483 124° Southeast 381 438 31,000  Level Los Angeles Center
Fri 06:00:37 PM 37.3006 -117.1692 145° Southeast 396 456 31,000  Level Los Angeles Center
Fri 06:01:39 PM 37.1742 -117.0611 146° Southeast 463 533 31,000  Level Los Angeles Center
Fri 06:02:41 PM 37.0639 -116.9686 146° Southeast 475 547 31,000  Level Los Angeles Center
Fri 06:03:43 PM 36.9550 -116.8778 146° Southeast 472 543 31,000  Level Los Angeles Center
Fri 06:04:45 PM 36.8472 -116.7850 145° Southeast 470 541 31,000  Level Los Angeles Center
Fri 06:05:47 PM 36.7494 -116.6753 138° Southeast 473 544 31,000 -816 Level Los Angeles Center
Fri 06:06:50 PM 36.6617 -116.5497 131° Southeast 479 551 29,300 -2,256 Descending Los Angeles Center
Fri 06:07:52 PM 36.5628 -116.4061 131° Southeast 460 529 26,300 -2,661 Descending Los Angeles Center
Fri 06:08:54 PM 36.4867 -116.3000 132° Southeast 442 509 23,800 -2,516 Descending Los Angeles Center
Fri 06:09:56 PM 36.3997 -116.1769 131° Southeast 436 502 21,100 -2,613 Descending Los Angeles Center
Fri 06:10:58 PM 36.3186 -116.0625 131° Southeast 410 472 18,400 -2,000 Descending Los Angeles Center
Fri 06:12:29 PM 36.2147 -115.9186 132° Southeast 380 437 16,000 -1,161 Descending Los Angeles Center
Fri 06:13:02 PM 36.1903 -115.8653 120° Southeast 347 399 16,000  Level Los Angeles Center
Fri 06:14:04 PM 36.1531 -115.7492 112° Southeast 340 391 16,000  Level Los Angeles Center
Fri 06:15:06 PM 36.1167 -115.6400 112° Southeast 344 396 16,000 -823 Level Los Angeles Center
Fri 06:16:08 PM 36.0850 -115.5419 112° Southeast 335 386 14,300 -1,968 Descending Los Angeles Center
Fri 06:17:11 PM 36.0450 -115.4178 112° Southeast 330 380 11,900 -1,883 Descending Los Angeles Center
Fri 06:18:25 PM 36.0264 -115.3008 101° East 298 343 10,000 -1,500 Descending Los Angeles Center
Fri 06:19:27 PM 36.0189 -115.2072 96° East 278 320 8,500 -968 Descending Los Angeles Center
Fri 06:20:29 PM 36.0292 -115.1233 81° East 272 313 8,000 -823 Descending Los Angeles Center
Fri 06:21:31 PM 36.0594 -115.0592 60° Northeast 230 265 6,800 -1,065 Descending Los Angeles Center
Fri 06:22:33 PM 36.1189 -115.0369 17° North 200 230 5,800 -912 Descending Los Angeles Center
Fri 06:23:36 PM 36.1578 -115.0644 330° Northwest 197 227 4,900 -836 Descending Los Angeles Center
Fri 06:24:35 PM 36.1492 -115.1175 259° West 143 165 4,100 -1,016 Descending Los Angeles Center
Fri 06:25:40 PM 36.1247 -115.1403 217° Southwest 144 166 2,800 -898 Descending Los Angeles Center
Fri 06:26:42 PM 36.0925 -115.1594 206° Southwest 131 151 2,200 -581 Descending Los Angeles Center
Fri 06:28:00 PM 36.0801 -115.1523 95° East  Level Estimated

Login

Don't have an account? Register now (free) for customized features, flight alerts, and more!